Time;durP1;ratioP1;P1;durP2;ratioP2;P2;SDS_P1;SDS_P2;PMS_P1;PMS_P2;Temp;Humidity;BMP_temperature;BMP_pressure;BME280_temperature;BME280_humidity;BME280_pressure;Samples;Min_cycle;Max_cycle;Signal;HPM_P1;HPM_P2
2022/09/05 00:02:00;;;;;;;12.82;8.80;;;19.70;99.90;;;;;;4791962;29;20062;-82
2022/09/05 00:04:32;;;;;;;12.70;8.77;;;19.60;99.90;;;;;;4792216;29;20080;-82
2022/09/05 00:07:22;;;;;;;14.50;9.48;;;19.60;99.90;;;;;;4791971;29;20563;-83
2022/09/05 00:10:18;;;;;;;13.50;9.00;;;19.60;99.90;;;;;;4791949;29;20083;-82
2022/09/05 00:12:45;;;;;;;13.43;9.30;;;19.50;99.90;;;;;;4792311;29;20143;-83
2022/09/05 00:15:24;;;;;;;10.98;8.52;;;19.50;99.90;;;;;;4791742;29;20055;-84
2022/09/05 00:17:49;;;;;;;11.15;8.73;;;19.50;99.90;;;;;;4808139;29;20059;-83
2022/09/05 00:20:56;;;;;;;12.27;8.98;;;19.50;99.90;;;;;;4807954;29;20061;-84
2022/09/05 00:23:49;;;;;;;14.40;9.25;;;19.50;99.90;;;;;;4737329;30;20085;-83
2022/09/05 00:26:27;;;;;;;13.52;9.98;;;19.50;99.90;;;;;;4790516;29;20058;-83
2022/09/05 00:29:09;;;;;;;15.13;9.27;;;19.40;99.90;;;;;;4791777;29;20413;-82
2022/09/05 00:31:48;;;;;;;13.27;9.70;;;19.50;99.90;;;;;;4791776;29;20484;-83
2022/09/05 00:34:41;;;;;;;10.73;9.63;;;19.40;99.90;;;;;;4791559;29;20107;-82
2022/09/05 00:37:09;;;;;;;11.85;8.82;;;19.40;99.90;;;;;;4791367;29;20050;-83
2022/09/05 00:39:38;;;;;;;11.70;9.45;;;19.40;99.90;;;;;;4807956;29;20046;-83
2022/09/05 00:42:14;;;;;;;15.40;9.57;;;19.30;99.90;;;;;;4807869;29;20053;-83
2022/09/05 00:44:52;;;;;;;14.95;9.68;;;19.30;99.90;;;;;;4791585;29;20043;-83
2022/09/05 00:47:30;;;;;;;13.02;10.02;;;19.30;99.90;;;;;;4791363;29;20078;-83
2022/09/05 00:50:01;;;;;;;11.98;9.60;;;19.30;99.90;;;;;;4791247;29;20051;-81
2022/09/05 00:52:32;;;;;;;13.98;10.38;;;19.20;99.90;;;;;;4791539;29;20043;-83
2022/09/05 00:55:01;;;;;;;15.93;10.65;;;19.20;99.90;;;;;;4791168;29;20491;-83
2022/09/05 00:57:49;;;;;;;15.60;10.43;;;19.20;99.90;;;;;;4790799;29;20059;-83
2022/09/05 01:00:18;;;;;;;20.00;11.32;;;19.10;99.90;;;;;;4790917;29;20069;-82
2022/09/05 01:03:21;;;;;;;14.80;10.73;;;19.10;99.90;;;;;;4806625;29;20062;-83
2022/09/05 01:05:56;;;;;;;;;;;19.10;99.90;;;;;;4807674;29;20055;-82
2022/09/05 01:08:55;;;;;;;21.45;11.50;;;19.00;99.90;;;;;;4790846;29;19925;-82
2022/09/05 01:11:39;;;;;;;15.18;11.00;;;19.10;99.90;;;;;;4791077;29;20487;-83
2022/09/05 01:14:58;;;;;;;19.45;10.82;;;19.00;99.90;;;;;;4791183;29;20479;-83
2022/09/05 01:17:24;;;;;;;14.30;10.70;;;19.00;99.90;;;;;;4786881;30;20050;-83
2022/09/05 01:19:58;;;;;;;14.75;10.52;;;19.00;99.90;;;;;;4786705;29;20145;-83
2022/09/05 01:22:35;;;;;;;13.90;10.70;;;19.00;99.90;;;;;;4791000;29;20061;-83
2022/09/05 01:25:52;;;;;;;14.70;10.40;;;18.90;99.90;;;;;;4790879;29;20055;-83
2022/09/05 01:28:50;;;;;;;15.25;10.55;;;18.90;99.90;;;;;;4783092;29;20170;-82
2022/09/05 01:31:22;;;;;;;15.45;10.15;;;19.00;99.90;;;;;;4790486;29;20059;-82
2022/09/05 01:34:11;;;;;;;14.30;10.70;;;18.90;99.90;;;;;;4790790;29;20178;-83
2022/09/05 01:37:06;;;;;;;14.93;10.85;;;18.90;99.90;;;;;;4790528;29;20051;-82
2022/09/05 01:40:03;;;;;;;14.70;10.68;;;18.80;99.90;;;;;;4790693;29;20042;-83
2022/09/05 01:42:36;;;;;;;12.77;10.15;;;18.70;99.90;;;;;;4786682;29;20065;-83
2022/09/05 01:45:05;;;;;;;13.10;10.68;;;18.60;99.90;;;;;;4790311;29;20046;-81
2022/09/05 01:48:01;;;;;;;14.63;11.10;;;18.60;99.90;;;;;;4790438;29;20046;-83
2022/09/05 01:50:55;;;;;;;14.20;10.75;;;18.70;99.90;;;;;;4790334;29;20071;-84
2022/09/05 01:53:36;;;;;;;13.82;10.43;;;18.60;99.90;;;;;;4790964;29;20059;-82
2022/09/05 01:56:15;;;;;;;13.20;11.13;;;18.60;99.90;;;;;;4806213;29;20509;-81
2022/09/05 01:59:06;;;;;;;15.48;11.40;;;18.50;99.90;;;;;;4790252;29;20066;-81
2022/09/05 02:01:50;;;;;;;11.68;9.98;;;18.50;99.90;;;;;;4790256;29;20046;-82
2022/09/05 02:04:53;;;;;;;16.30;10.73;;;18.40;99.90;;;;;;4790426;29;20129;-83
2022/09/05 02:08:06;;;;;;;15.13;10.57;;;18.40;99.90;;;;;;4790082;29;20062;-83
2022/09/05 02:10:39;;;;;;;16.33;11.70;;;18.30;99.90;;;;;;4788251;29;20054;-80
2022/09/05 02:13:23;;;;;;;18.73;10.77;;;18.40;99.90;;;;;;4790100;29;20155;-82
2022/09/05 02:16:22;;;;;;;15.32;11.45;;;18.30;99.90;;;;;;4794138;29;20157;-81
2022/09/05 02:19:13;;;;;;;15.05;11.75;;;18.30;99.90;;;;;;4794051;29;20450;-83
2022/09/05 02:22:00;;;;;;;15.20;10.95;;;18.30;99.90;;;;;;4810310;29;20050;-82
2022/09/05 02:24:36;;;;;;;16.58;11.48;;;18.30;99.90;;;;;;4793811;29;20066;-81
2022/09/05 02:27:04;;;;;;;13.02;11.48;;;18.20;99.90;;;;;;4793685;29;20515;-82
2022/09/05 02:29:52;;;;;;;14.23;11.13;;;18.20;99.90;;;;;;4793712;29;20067;-82
2022/09/05 02:32:21;;;;;;;16.15;10.40;;;18.20;99.90;;;;;;4809873;29;20465;-82
2022/09/05 02:35:20;;;;;;;15.13;10.60;;;18.20;99.90;;;;;;4793611;29;20099;-83
2022/09/05 02:37:45;;;;;;;15.30;11.00;;;18.20;99.90;;;;;;4783502;29;20449;-83
2022/09/05 02:40:40;;;;;;;14.65;10.70;;;18.10;99.90;;;;;;4793423;29;20054;-82
2022/09/05 02:43:47;;;;;;;15.15;11.43;;;18.10;99.90;;;;;;4793673;29;20156;-82
2022/09/05 02:46:45;;;;;;;13.60;11.65;;;18.00;99.90;;;;;;4774833;29;20063;-82
2022/09/05 02:49:21;;;;;;;15.00;11.15;;;18.00;99.90;;;;;;4774503;30;20051;-81
2022/09/05 02:52:06;;;;;;;12.95;10.65;;;17.90;99.90;;;;;;4788640;29;20495;-82
2022/09/05 02:54:39;;;;;;;15.93;11.18;;;17.90;99.90;;;;;;4793558;29;20478;-81
2022/09/05 02:57:07;;;;;;;13.77;11.27;;;17.90;99.90;;;;;;4792900;29;20058;-81
2022/09/05 02:59:57;;;;;;;14.82;11.27;;;17.80;99.90;;;;;;4793016;29;20137;-83
2022/09/05 03:02:44;;;;;;;12.88;11.45;;;17.80;99.90;;;;;;4793373;29;20064;-82
2022/09/05 03:05:30;;;;;;;15.30;10.95;;;17.70;99.90;;;;;;4793303;29;20082;-82
2022/09/05 03:08:14;;;;;;;16.48;11.75;;;17.70;99.90;;;;;;4792986;29;20047;-81
2022/09/05 03:11:02;;;;;;;17.45;11.13;;;17.70;99.90;;;;;;4809337;29;20049;-82
2022/09/05 03:13:46;;;;;;;18.52;11.73;;;17.70;99.90;;;;;;4805705;29;20111;-82
2022/09/05 03:16:37;;;;;;;17.00;11.52;;;17.60;99.90;;;;;;4793276;29;20373;-81
2022/09/05 03:19:28;;;;;;;16.52;11.75;;;17.50;99.90;;;;;;4792853;29;20053;-81
2022/09/05 03:22:25;;;;;;;13.63;10.73;;;17.50;99.90;;;;;;4790182;29;20115;-82
2022/09/05 03:25:05;;;;;;;14.90;10.98;;;17.50;99.90;;;;;;4808835;29;20493;-82
2022/09/05 03:28:02;;;;;;;16.30;11.45;;;17.50;99.90;;;;;;4792935;29;20400;-81
2022/09/05 03:30:58;;;;;;;14.27;11.48;;;17.40;99.90;;;;;;4792903;29;20047;-81
2022/09/05 03:33:48;;;;;;;15.00;12.30;;;17.40;99.90;;;;;;4792850;29;20507;-82
2022/09/05 03:36:23;;;;;;;13.43;11.13;;;17.40;99.90;;;;;;4792705;29;20199;-82
2022/09/05 03:39:09;;;;;;;18.70;11.38;;;17.40;99.90;;;;;;4792650;29;20086;-81
2022/09/05 03:41:52;;;;;;;14.73;11.50;;;17.30;99.90;;;;;;4792718;29;20141;-82
2022/09/05 03:44:32;;;;;;;15.27;11.67;;;17.30;99.90;;;;;;4792471;29;20062;-82
2022/09/05 03:47:07;;;;;;;15.68;11.90;;;17.40;99.90;;;;;;4792316;29;20330;-82
2022/09/05 03:49:45;;;;;;;17.23;11.27;;;17.30;99.90;;;;;;4808575;29;20039;-81
2022/09/05 03:52:46;;;;;;;16.60;12.18;;;17.20;99.90;;;;;;4792360;29;20062;-81
2022/09/05 03:55:31;;;;;;;18.15;12.50;;;17.20;99.90;;;;;;4788336;30;20059;-81
2022/09/05 03:58:41;;;;;;;14.90;11.75;;;17.10;99.90;;;;;;4791896;29;20411;-81
2022/09/05 04:01:27;;;;;;;16.75;12.60;;;17.10;99.90;;;;;;4773036;30;20102;-81
2022/09/05 04:04:26;;;;;;;18.17;12.25;;;17.10;99.90;;;;;;4808127;29;20499;-81
2022/09/05 04:06:59;;;;;;;14.65;11.93;;;17.10;99.90;;;;;;4804520;29;20071;-82
2022/09/05 04:09:56;;;;;;;17.67;11.52;;;17.00;99.90;;;;;;4792368;29;20058;-82
2022/09/05 04:12:35;;;;;;;14.70;11.75;;;17.00;99.90;;;;;;4792155;29;20480;-82
2022/09/05 04:15:16;;;;;;;17.48;12.60;;;17.00;99.90;;;;;;4791894;29;20080;-81
2022/09/05 04:17:51;;;;;;;22.10;11.80;;;16.90;99.90;;;;;;4792151;29;20063;-81
2022/09/05 04:20:21;;;;;;;19.08;13.13;;;16.90;99.90;;;;;;4807867;29;20453;-80
2022/09/05 04:23:06;;;;;;;16.42;12.57;;;16.90;99.90;;;;;;4791697;29;20054;-82
2022/09/05 04:26:09;;;;;;;18.42;13.02;;;16.90;99.90;;;;;;4791746;29;20394;-82
2022/09/05 04:29:01;;;;;;;16.00;11.82;;;16.80;99.90;;;;;;4791576;29;20103;-81
2022/09/05 04:31:36;;;;;;;20.52;13.10;;;16.70;99.90;;;;;;4791361;29;20384;-82
2022/09/05 04:34:20;;;;;;;16.00;12.48;;;16.70;99.90;;;;;;4791888;29;20058;-81
2022/09/05 04:36:59;;;;;;;19.15;13.30;;;16.80;99.90;;;;;;4791646;29;20051;-80
2022/09/05 04:39:27;;;;;;;16.80;12.45;;;16.70;99.90;;;;;;4791677;29;20051;-82
2022/09/05 04:42:04;;;;;;;15.18;12.48;;;16.70;99.90;;;;;;4791453;29;20098;-82
2022/09/05 04:44:34;;;;;;;18.02;13.70;;;16.70;99.90;;;;;;4791246;29;20038;-80
2022/09/05 04:47:08;;;;;;;16.88;12.45;;;16.70;99.90;;;;;;4791318;29;20055;-81
2022/09/05 04:49:40;;;;;;;15.98;13.45;;;16.70;99.90;;;;;;4807434;29;20091;-81
2022/09/05 04:52:29;;;;;;;16.98;13.43;;;16.70;99.90;;;;;;4790304;29;20134;-81
2022/09/05 04:55:12;;;;;;;17.27;13.48;;;16.70;99.90;;;;;;4806923;29;20046;-82
2022/09/05 04:57:42;;;;;;;;;;;16.70;99.90;;;;;;4791316;29;20085;-80
2022/09/05 05:00:19;;;;;;;18.20;13.23;;;16.70;99.90;;;;;;4790960;29;19932;-81
2022/09/05 05:02:49;;;;;;;17.85;12.70;;;16.60;99.90;;;;;;4791129;29;20495;-81
2022/09/05 05:05:23;;;;;;;18.48;13.70;;;16.60;99.90;;;;;;4791068;29;20057;-81
2022/09/05 05:08:00;;;;;;;19.00;13.70;;;16.60;99.90;;;;;;4791064;29;20491;-80
2022/09/05 05:10:48;;;;;;;17.15;12.95;;;16.60;99.90;;;;;;4791082;29;20050;-81
2022/09/05 05:13:41;;;;;;;18.10;12.70;;;16.60;99.90;;;;;;4790983;29;20514;-81
2022/09/05 05:16:19;;;;;;;15.02;13.25;;;16.60;99.90;;;;;;4806966;29;20054;-81
2022/09/05 05:18:54;;;;;;;19.23;12.68;;;16.60;99.90;;;;;;4807067;29;20054;-82
2022/09/05 05:21:25;;;;;;;15.45;12.15;;;16.60;99.90;;;;;;4806878;29;20537;-81
2022/09/05 05:23:58;;;;;;;18.02;13.00;;;16.60;99.90;;;;;;4790734;29;20125;-81
2022/09/05 05:26:33;;;;;;;20.67;13.23;;;16.60;99.90;;;;;;4790518;29;20066;-82
2022/09/05 05:29:07;;;;;;;17.27;13.40;;;16.60;99.90;;;;;;4790551;29;20411;-81
2022/09/05 05:31:45;;;;;;;15.88;11.93;;;16.60;99.90;;;;;;4806828;29;20070;-81
2022/09/05 05:34:46;;;;;;;22.05;13.45;;;16.60;99.90;;;;;;4790707;29;20143;-81
2022/09/05 05:37:31;;;;;;;19.73;13.90;;;16.60;99.90;;;;;;4790437;29;20058;-81
2022/09/05 05:40:15;;;;;;;18.15;13.68;;;16.60;99.90;;;;;;4806589;29;20046;-81
2022/09/05 05:42:43;;;;;;;19.83;13.15;;;16.70;99.90;;;;;;4806728;29;20491;-81
2022/09/05 05:45:14;;;;;;;17.90;12.88;;;16.70;99.90;;;;;;4790415;29;20149;-80
2022/09/05 05:47:47;;;;;;;17.05;13.98;;;16.80;99.90;;;;;;4790215;29;20050;-81
2022/09/05 05:50:32;;;;;;;15.90;13.45;;;16.80;99.90;;;;;;4789933;29;20050;-81
2022/09/05 05:53:10;;;;;;;19.92;13.60;;;16.90;99.90;;;;;;4790532;29;20054;-81
2022/09/05 05:55:41;;;;;;;18.05;14.48;;;16.90;99.90;;;;;;4790420;29;20124;-81
2022/09/05 05:58:10;;;;;;;18.15;13.80;;;17.00;99.90;;;;;;4790834;29;20050;-83
2022/09/05 06:00:54;;;;;;;17.98;13.85;;;17.00;99.90;;;;;;4790260;29;20051;-81
2022/09/05 06:03:41;;;;;;;19.40;13.60;;;17.10;99.90;;;;;;4790153;29;20415;-81
2022/09/05 06:06:25;;;;;;;20.00;14.38;;;17.20;99.90;;;;;;4790276;29;20488;-81
2022/09/05 06:09:19;;;;;;;16.67;13.38;;;17.20;99.90;;;;;;4790102;29;20043;-81
2022/09/05 06:12:02;;;;;;;;;;;17.40;99.90;;;;;;4790667;29;20527;-81
2022/09/05 06:14:58;;;;;;;22.17;14.10;;;17.40;99.90;;;;;;4790138;29;19925;-81
2022/09/05 06:17:57;;;;;;;19.35;13.88;;;17.50;99.90;;;;;;4790129;29;20059;-82
2022/09/05 06:20:52;;;;;;;19.95;14.27;;;17.60;99.90;;;;;;4789800;29;20061;-82
2022/09/05 06:23:21;;;;;;;18.40;14.32;;;17.80;99.90;;;;;;4790216;29;20529;-83
2022/09/05 06:26:24;;;;;;;20.60;15.00;;;18.00;99.90;;;;;;4790041;29;20107;-79
2022/09/05 06:29:09;;;;;;;18.38;14.10;;;18.00;99.90;;;;;;4789840;29;20057;-80
2022/09/05 06:32:07;;;;;;;22.67;15.93;;;18.10;99.90;;;;;;4790300;29;20055;-81
2022/09/05 06:34:45;;;;;;;20.17;14.55;;;18.20;99.90;;;;;;4804072;29;20055;-81
2022/09/05 06:37:25;;;;;;;20.80;14.38;;;18.40;99.90;;;;;;4789936;29;20133;-81
2022/09/05 06:40:20;;;;;;;20.35;15.30;;;18.40;99.90;;;;;;4790070;29;20047;-81
2022/09/05 06:43:15;;;;;;;19.05;15.20;;;18.50;99.90;;;;;;4789983;29;20491;-81
2022/09/05 06:45:52;;;;;;;20.05;15.20;;;18.60;99.90;;;;;;4790122;29;20507;-81
2022/09/05 06:48:30;;;;;;;23.92;15.88;;;18.70;99.90;;;;;;4790066;29;20448;-82
2022/09/05 06:51:15;;;;;;;24.58;15.35;;;18.80;99.90;;;;;;4790114;29;20129;-81
2022/09/05 06:53:58;;;;;;;22.55;16.10;;;19.00;99.90;;;;;;4790005;29;20071;-84
2022/09/05 06:56:27;;;;;;;23.95;15.02;;;19.00;99.90;;;;;;4805928;29;20070;-84
2022/09/05 06:58:58;;;;;;;20.00;15.68;;;19.20;99.90;;;;;;4806168;29;20051;-82
2022/09/05 07:01:28;;;;;;;18.80;14.73;;;19.30;99.90;;;;;;4791565;29;20069;-81
2022/09/05 07:04:03;;;;;;;23.02;16.40;;;19.30;99.90;;;;;;4809632;29;20051;-82
2022/09/05 07:06:35;;;;;;;21.27;16.13;;;19.40;99.90;;;;;;4793283;29;20191;-83
2022/09/05 07:09:03;;;;;;;24.02;16.15;;;19.40;99.90;;;;;;4793259;29;20059;-82
2022/09/05 07:11:35;;;;;;;21.73;15.48;;;19.50;99.90;;;;;;4793036;29;20063;-81
2022/09/05 07:14:09;;;;;;;26.17;16.53;;;19.40;99.90;;;;;;4793251;29;20160;-81
2022/09/05 07:16:48;;;;;;;24.13;15.73;;;19.50;99.90;;;;;;4792747;29;20653;-82
2022/09/05 07:19:26;;;;;;;18.90;14.57;;;19.60;99.90;;;;;;4809233;29;20050;-80
2022/09/05 07:22:12;;;;;;;21.48;15.55;;;19.80;99.90;;;;;;4792671;29;20066;-81
2022/09/05 07:24:43;;;;;;;24.42;15.63;;;20.00;99.90;;;;;;4793108;29;20094;-81
2022/09/05 07:27:11;;;;;;;18.27;14.95;;;20.10;99.90;;;;;;4809096;29;20158;-81
2022/09/05 07:29:43;;;;;;;22.67;16.50;;;20.30;99.90;;;;;;4790007;29;20504;-82
2022/09/05 07:32:16;;;;;;;23.17;14.73;;;20.30;99.90;;;;;;4782567;30;20066;-81
2022/09/05 07:34:43;;;;;;;;;;;20.40;99.90;;;;;;4775227;30;20063;-83
2022/09/05 07:37:14;;;;;;;25.40;14.95;;;20.60;99.90;;;;;;4774611;30;19948;-82
2022/09/05 07:39:48;;;;;;;20.40;15.48;;;20.70;99.90;;;;;;4774341;30;20063;-82
2022/09/05 07:42:24;;;;;;;20.05;14.95;;;20.80;99.90;;;;;;4773809;30;20163;-81
2022/09/05 07:44:58;;;;;;;20.42;14.90;;;20.90;99.90;;;;;;4774257;30;20397;-81
2022/09/05 07:48:02;;;;;;;22.48;15.73;;;20.90;99.90;;;;;;4774337;30;20074;-81
2022/09/05 07:50:30;;;;;;;20.25;14.85;;;21.00;99.90;;;;;;4779043;30;20071;-82
2022/09/05 07:52:59;;;;;;;20.77;14.50;;;21.20;99.90;;;;;;4782719;29;20150;-82
2022/09/05 07:55:34;;;;;;;23.83;16.40;;;21.20;99.90;;;;;;4791969;29;20085;-81
2022/09/05 07:58:14;;;;;;;22.20;14.90;;;21.30;99.90;;;;;;4791873;29;20063;-83
2022/09/05 08:00:41;;;;;;;16.25;13.90;;;21.30;99.90;;;;;;4791669;29;20054;-82
2022/09/05 08:03:13;;;;;;;21.65;15.88;;;21.40;99.90;;;;;;4808290;29;20083;-81
2022/09/05 08:05:49;;;;;;;21.35;14.90;;;21.50;99.90;;;;;;4792063;29;20137;-82
2022/09/05 08:08:30;;;;;;;24.63;16.08;;;21.60;99.90;;;;;;4791742;29;20054;-81
2022/09/05 08:11:10;;;;;;;20.13;15.43;;;21.70;99.90;;;;;;4792003;29;20089;-81
2022/09/05 08:13:40;;;;;;;23.25;15.20;;;21.80;99.90;;;;;;4807941;29;20051;-82
2022/09/05 08:16:08;;;;;;;21.00;16.20;;;21.90;99.90;;;;;;4791851;29;20055;-81
2022/09/05 08:18:36;;;;;;;20.48;16.50;;;22.00;99.90;;;;;;4807933;29;20112;-82
2022/09/05 08:21:22;;;;;;;19.17;15.65;;;22.10;99.90;;;;;;4791525;29;20494;-82
2022/09/05 08:23:50;;;;;;;21.80;14.95;;;22.10;99.90;;;;;;4791587;29;20130;-81
2022/09/05 08:26:19;;;;;;;20.83;14.27;;;22.20;99.90;;;;;;4791539;29;20058;-82
2022/09/05 08:29:12;;;;;;;20.92;13.80;;;22.30;99.90;;;;;;4791699;29;20054;-82
2022/09/05 08:31:47;;;;;;;20.33;12.35;;;22.40;99.90;;;;;;4791449;29;20055;-83
2022/09/05 08:34:20;;;;;;;19.00;12.75;;;22.50;99.90;;;;;;4790950;29;20051;-82
2022/09/05 08:36:48;;;;;;;17.55;12.27;;;22.70;99.90;;;;;;4788712;29;20489;-82
2022/09/05 08:39:22;;;;;;;17.45;14.50;;;22.80;99.90;;;;;;4807271;29;20130;-82
2022/09/05 08:41:57;;;;;;;22.67;12.95;;;22.80;99.90;;;;;;4791250;29;20047;-80
2022/09/05 08:44:53;;;;;;;18.15;13.77;;;22.90;99.90;;;;;;4785531;29;20046;-81
2022/09/05 08:47:36;;;;;;;18.55;12.65;;;23.00;99.90;;;;;;4790649;29;20058;-82
2022/09/05 08:50:20;;;;;;;21.35;13.15;;;23.10;99.90;;;;;;4791384;29;20051;-83
2022/09/05 08:53:24;;;;;;;14.65;11.70;;;23.30;99.90;;;;;;4791184;29;20051;-81
2022/09/05 08:56:12;;;;;;;22.13;12.40;;;23.30;99.90;;;;;;4791074;29;20050;-82
2022/09/05 08:58:50;;;;;;;16.65;12.25;;;23.40;99.90;;;;;;4790869;29;20559;-83
2022/09/05 09:01:29;;;;;;;13.50;11.15;;;23.60;99.90;;;;;;4790855;29;20083;-83
2022/09/05 09:04:12;;;;;;;14.18;12.02;;;23.70;99.90;;;;;;4791133;29;20188;-83
2022/09/05 09:07:04;;;;;;;14.52;11.75;;;23.80;99.90;;;;;;4785679;29;20556;-84
2022/09/05 09:09:51;;;;;;;17.05;11.02;;;23.90;99.90;;;;;;4790751;29;20063;-83
2022/09/05 09:12:38;;;;;;;16.67;10.18;;;24.00;99.90;;;;;;4790989;29;20082;-82
2022/09/05 09:15:12;;;;;;;14.73;11.10;;;24.20;99.90;;;;;;4790635;29;20108;-82
2022/09/05 09:17:46;;;;;;;20.60;10.93;;;24.40;99.90;;;;;;4790117;29;20054;-83
2022/09/05 09:20:21;;;;;;;13.48;10.13;;;24.30;99.90;;;;;;4790318;29;20420;-84
2022/09/05 09:23:04;;;;;;;12.93;8.77;;;24.40;99.60;;;;;;4787873;29;20050;-83
2022/09/05 09:25:38;;;;;;;12.88;9.30;;;24.60;99.90;;;;;;4790274;29;20118;-83
2022/09/05 09:28:42;;;;;;;9.95;8.93;;;24.80;99.70;;;;;;4788249;29;20487;-83
2022/09/05 09:31:32;;;;;;;14.52;9.82;;;24.80;99.20;;;;;;4789188;29;20062;-82
2022/09/05 09:34:07;;;;;;;22.17;9.38;;;25.00;99.20;;;;;;4790395;29;20102;-83
2022/09/05 09:37:11;;;;;;;9.80;8.68;;;25.10;99.20;;;;;;4790066;29;20130;-82
2022/09/05 09:40:15;;;;;;;11.10;7.78;;;25.30;99.90;;;;;;4790411;29;20559;-83
2022/09/05 09:43:12;;;;;;;11.85;8.38;;;25.50;99.60;;;;;;4790226;29;20551;-83
2022/09/05 09:46:02;;;;;;;9.73;6.95;;;25.60;99.30;;;;;;4806606;29;20047;-83
2022/09/05 09:48:43;;;;;;;9.75;6.43;;;25.80;99.40;;;;;;4805618;29;20066;-84
2022/09/05 09:51:40;;;;;;;10.60;6.45;;;25.90;99.10;;;;;;4788819;29;20038;-84
2022/09/05 09:54:27;;;;;;;8.23;6.38;;;25.90;98.60;;;;;;4770676;30;20502;-84
2022/09/05 09:57:24;;;;;;;8.85;5.35;;;26.00;99.10;;;;;;4771956;30;20504;-83
2022/09/05 09:59:58;;;;;;;7.00;5.13;;;26.20;98.60;;;;;;4787653;29;20047;-83
2022/09/05 10:02:33;;;;;;;6.45;5.07;;;26.40;98.70;;;;;;4790173;29;20054;-83
2022/09/05 10:05:21;;;;;;;6.70;4.72;;;26.60;98.60;;;;;;4789683;29;20054;-83
2022/09/05 10:08:06;;;;;;;5.68;4.50;;;26.70;97.50;;;;;;4788754;29;20055;-84
2022/09/05 10:10:43;;;;;;;5.55;4.63;;;26.70;97.00;;;;;;4788318;29;20518;-85
2022/09/05 10:13:19;;;;;;;20.13;7.45;;;26.80;97.60;;;;;;4788912;29;20055;-84
2022/09/05 10:16:20;;;;;;;5.80;4.60;;;27.00;96.80;;;;;;4789749;29;20564;-85
2022/09/05 10:19:12;;;;;;;5.65;4.30;;;27.10;98.00;;;;;;4790231;29;20047;-84
2022/09/05 10:22:10;;;;;;;8.02;4.88;;;27.30;97.30;;;;;;4790285;29;20384;-83
2022/09/05 10:25:12;;;;;;;9.23;4.63;;;27.40;96.20;;;;;;4790272;29;20111;-83
2022/09/05 10:27:52;;;;;;;;;;;27.60;96.30;;;;;;4790677;29;20065;-82
2022/09/05 10:30:26;;;;;;;8.30;4.45;;;27.70;96.30;;;;;;4806192;29;19932;-83
2022/09/05 10:32:54;;;;;;;6.50;4.13;;;27.70;96.60;;;;;;4790154;29;20057;-83
2022/09/05 10:35:32;;;;;;;6.57;5.22;;;27.90;96.50;;;;;;4791883;29;20090;-83
2022/09/05 10:38:31;;;;;;;7.07;5.15;;;28.00;95.20;;;;;;4793737;29;20138;-83
2022/09/05 10:41:08;;;;;;;7.22;5.03;;;28.10;96.10;;;;;;4793458;29;20113;-83
2022/09/05 10:43:52;;;;;;;6.43;5.03;;;28.20;95.90;;;;;;4793792;29;20130;-83
2022/09/05 10:46:47;;;;;;;7.78;4.38;;;28.20;95.60;;;;;;4794040;29;20046;-83
2022/09/05 10:49:14;;;;;;;6.55;4.40;;;28.30;95.80;;;;;;4808632;29;20126;-83
2022/09/05 10:52:17;;;;;;;6.80;4.28;;;28.50;95.90;;;;;;4793566;29;20058;-84
2022/09/05 10:55:01;;;;;;;5.45;4.78;;;28.60;95.40;;;;;;4793531;29;20051;-83
2022/09/05 10:57:42;;;;;;;5.75;4.28;;;28.50;95.30;;;;;;4793125;29;20486;-83
2022/09/05 11:00:33;;;;;;;5.93;4.20;;;28.80;94.70;;;;;;4793130;29;20151;-83
2022/09/05 11:03:00;;;;;;;5.97;4.20;;;28.70;95.00;;;;;;4793332;29;20065;-84
2022/09/05 11:05:27;;;;;;;4.90;4.10;;;28.90;95.40;;;;;;4793027;29;20058;-83
2022/09/05 11:08:01;;;;;;;5.18;3.72;;;29.00;94.80;;;;;;4793076;29;20055;-83
2022/09/05 11:10:50;;;;;;;6.43;4.15;;;29.00;93.60;;;;;;4793698;29;20184;-83
2022/09/05 11:13:26;;;;;;;5.50;3.60;;;29.10;94.30;;;;;;4793206;29;20131;-83
2022/09/05 11:16:06;;;;;;;7.40;3.97;;;29.10;94.10;;;;;;4823314;29;20154;-81
2022/09/05 11:18:51;;;;;;;5.95;3.17;;;29.00;92.60;;;;;;4792895;29;20054;-83
2022/09/05 11:21:48;;;;;;;7.45;3.30;;;29.00;92.20;;;;;;4792794;29;20050;-83
2022/09/05 11:24:37;;;;;;;6.22;3.55;;;29.10;92.70;;;;;;4793026;29;20051;-83
2022/09/05 11:27:18;;;;;;;5.75;2.88;;;29.20;93.30;;;;;;4792626;29;20059;-82
2022/09/05 11:29:52;;;;;;;3.50;2.47;;;29.20;91.50;;;;;;4808952;29;20466;-83
2022/09/05 11:32:30;;;;;;;3.40;2.00;;;29.40;91.80;;;;;;4792675;29;20062;-82
2022/09/05 11:35:07;;;;;;;4.50;2.40;;;29.50;92.00;;;;;;4792563;29;20071;-82
2022/09/05 11:37:57;;;;;;;4.78;2.78;;;29.60;92.40;;;;;;4792829;29;20059;-83
2022/09/05 11:40:44;;;;;;;5.75;2.53;;;29.70;90.50;;;;;;4808979;29;20058;-83
2022/09/05 11:43:35;;;;;;;4.75;2.50;;;29.70;91.60;;;;;;4792676;29;20464;-82
2022/09/05 11:46:12;;;;;;;4.63;2.08;;;29.80;91.50;;;;;;4791909;29;20111;-83
2022/09/05 11:48:54;;;;;;;6.22;2.00;;;29.80;90.20;;;;;;4792374;29;20139;-83
2022/09/05 11:51:26;;;;;;;;;;;29.80;90.80;;;;;;4792765;29;20415;-83
2022/09/05 11:54:29;;;;;;;6.35;2.55;;;29.70;91.10;;;;;;4792339;29;19925;-83
2022/09/05 11:57:15;;;;;;;4.43;2.13;;;29.80;88.90;;;;;;4792246;29;20130;-82
2022/09/05 12:00:10;;;;;;;3.35;1.65;;;29.90;90.50;;;;;;4808398;29;20542;-83
2022/09/05 12:02:51;;;;;;;11.77;2.55;;;29.90;85.70;;;;;;4792080;29;20138;-84
2022/09/05 12:05:51;;;;;;;4.33;2.27;;;29.70;89.10;;;;;;4792512;29;20057;-83
2022/09/05 12:09:01;;;;;;;7.70;2.72;;;29.80;86.00;;;;;;4792153;29;20050;-83
2022/09/05 12:11:45;;;;;;;10.18;3.97;;;29.80;90.00;;;;;;4778336;29;20066;-83
2022/09/05 12:14:32;;;;;;;5.80;2.85;;;29.80;89.50;;;;;;4791873;29;20082;-82
2022/09/05 12:17:45;;;;;;;7.90;2.92;;;30.10;90.50;;;;;;4808067;29;20054;-87
2022/09/05 12:20:35;;;;;;;4.38;2.63;;;30.10;84.50;;;;;;4790422;29;20137;-83
2022/09/05 12:23:25;;;;;;;4.55;2.20;;;29.90;87.60;;;;;;4791983;29;20059;-84
2022/09/05 12:26:14;;;;;;;4.38;2.42;;;30.10;86.90;;;;;;4792074;29;20518;-83
2022/09/05 12:28:44;;;;;;;4.80;2.30;;;30.20;87.80;;;;;;4791698;29;20138;-83
2022/09/05 12:31:17;;;;;;;3.08;2.30;;;30.20;88.50;;;;;;4791990;29;20058;-84
2022/09/05 12:33:47;;;;;;;5.07;2.40;;;30.30;88.50;;;;;;4808064;29;20062;-84
2022/09/05 12:36:20;;;;;;;6.38;2.47;;;30.30;85.90;;;;;;4791600;29;20047;-84
2022/09/05 12:39:06;;;;;;;4.85;2.60;;;30.00;88.00;;;;;;4791496;29;20089;-83
2022/09/05 12:41:47;;;;;;;5.13;3.13;;;30.10;87.90;;;;;;4791452;29;20104;-83
2022/09/05 12:44:49;;;;;;;4.50;2.85;;;30.10;89.30;;;;;;4791576;29;20057;-83
2022/09/05 12:47:21;;;;;;;6.40;2.80;;;30.10;89.60;;;;;;4791558;29;20061;-83
2022/09/05 12:50:08;;;;;;;3.70;2.92;;;30.00;89.50;;;;;;4791262;29;20057;-83
2022/09/05 12:52:45;;;;;;;8.45;3.30;;;29.90;89.70;;;;;;4791587;29;20059;-82
2022/09/05 12:55:23;;;;;;;10.05;3.10;;;29.90;87.90;;;;;;4791501;29;20404;-83
2022/09/05 12:57:56;;;;;;;5.65;3.15;;;29.90;88.20;;;;;;4790551;29;20066;-83
2022/09/05 13:00:22;;;;;;;4.70;3.05;;;30.00;90.20;;;;;;4790788;29;20098;-83
2022/09/05 13:02:54;;;;;;;4.30;3.00;;;29.80;89.30;;;;;;4791355;29;20055;-84
2022/09/05 13:05:25;;;;;;;4.88;3.00;;;30.10;90.20;;;;;;4791105;29;20055;-83
2022/09/05 13:07:57;;;;;;;5.65;3.85;;;30.10;89.80;;;;;;4791354;29;20050;-83
2022/09/05 13:10:38;;;;;;;4.80;3.45;;;30.00;89.40;;;;;;4790927;29;20082;-83
2022/09/05 13:13:19;;;;;;;5.38;3.42;;;30.00;90.00;;;;;;4807055;29;20051;-83
2022/09/05 13:15:49;;;;;;;6.20;3.92;;;29.90;88.80;;;;;;4807397;29;20138;-83
2022/09/05 13:18:40;;;;;;;7.13;3.80;;;29.70;87.90;;;;;;4790817;29;20073;-83
2022/09/05 13:21:14;;;;;;;6.50;3.83;;;29.70;90.80;;;;;;4786362;29;20143;-83
2022/09/05 13:24:16;;;;;;;6.47;3.95;;;29.20;93.00;;;;;;4791204;29;20050;-82
2022/09/05 13:26:54;;;;;;;4.37;3.60;;;29.40;91.60;;;;;;4790979;29;20086;-83
2022/09/05 13:29:23;;;;;;;5.78;4.22;;;29.50;91.30;;;;;;4790786;29;20284;-82
2022/09/05 13:31:52;;;;;;;5.72;3.65;;;29.30;92.30;;;;;;4807341;29;20050;-83
2022/09/05 13:34:42;;;;;;;6.30;4.43;;;29.20;93.10;;;;;;4790903;29;20410;-82
2022/09/05 13:37:24;;;;;;;5.90;4.10;;;29.10;92.80;;;;;;4785500;29;20113;-82
2022/09/05 13:39:50;;;;;;;;;;;29.10;93.40;;;;;;4790951;29;20059;-82
2022/09/05 13:42:22;;;;;;;5.18;3.85;;;28.80;93.60;;;;;;4790823;29;19932;-83
2022/09/05 13:44:53;;;;;;;6.22;4.28;;;28.80;93.80;;;;;;4790701;29;20086;-82
2022/09/05 13:47:25;;;;;;;7.05;3.63;;;28.60;93.90;;;;;;4790715;29;20559;-81
2022/09/05 13:50:01;;;;;;;4.90;3.88;;;28.50;94.20;;;;;;4806681;29;20051;-81
2022/09/05 13:52:34;;;;;;;7.80;4.07;;;28.50;94.90;;;;;;4790489;29;20063;-80